createdAt,value
2022-10-16T00:00:55.403Z,1.30
2022-10-16T00:03:26.564Z,1.40
2022-10-16T00:06:01.143Z,1.40
2022-10-16T00:08:28.598Z,1.80
2022-10-16T00:11:00.845Z,1.70
2022-10-16T00:13:27.402Z,1.40
2022-10-16T00:15:57.139Z,1.20
2022-10-16T00:18:24.130Z,1.60
2022-10-16T00:20:51.039Z,1.60
2022-10-16T00:23:36.952Z,1.50
2022-10-16T00:26:06.511Z,1.40
2022-10-16T00:28:33.384Z,1.13
2022-10-16T00:31:00.009Z,1.80
2022-10-16T00:33:26.986Z,1.40
2022-10-16T00:35:53.515Z,1.97
2022-10-16T00:38:20.113Z,1.80
2022-10-16T00:40:46.645Z,1.50
2022-10-16T00:43:39.105Z,1.93
2022-10-16T00:46:14.410Z,1.70
2022-10-16T00:48:41.954Z,1.70
2022-10-16T00:51:09.630Z,1.20
2022-10-16T00:53:36.465Z,2.00
2022-10-16T00:56:04.167Z,1.53
2022-10-16T00:58:30.768Z,1.60
2022-10-16T01:00:57.434Z,1.70
2022-10-16T01:03:36.626Z,1.70
2022-10-16T01:09:01.466Z,1.53
2022-10-16T01:11:55.044Z,1.50
2022-10-16T01:14:49.028Z,1.30
2022-10-16T01:17:24.494Z,1.50
2022-10-16T01:20:04.029Z,1.83
2022-10-16T01:23:06.560Z,1.30
2022-10-16T01:25:51.777Z,1.27
2022-10-16T01:28:23.104Z,1.40
2022-10-16T01:30:57.278Z,1.53
2022-10-16T01:33:39.201Z,1.43
2022-10-16T01:36:15.838Z,1.70
2022-10-16T01:38:45.764Z,1.40
2022-10-16T01:41:19.544Z,2.13
2022-10-16T01:44:09.470Z,1.10
2022-10-16T01:46:39.086Z,1.30
2022-10-16T01:49:07.300Z,1.73
2022-10-16T01:51:35.927Z,1.53
2022-10-16T01:54:03.465Z,1.30
2022-10-16T01:56:30.670Z,1.40
2022-10-16T01:59:02.650Z,1.30
2022-10-16T02:01:32.143Z,1.33
2022-10-16T02:04:03.150Z,1.97
2022-10-16T02:06:30.493Z,1.77
2022-10-16T02:08:57.432Z,1.53
2022-10-16T02:11:23.978Z,1.73
2022-10-16T02:14:01.818Z,1.43
2022-10-16T02:16:44.516Z,1.67
2022-10-16T02:19:17.914Z,1.47
2022-10-16T02:21:46.995Z,1.90
2022-10-16T02:24:34.884Z,1.73
2022-10-16T02:27:21.875Z,1.67
2022-10-16T02:29:59.604Z,1.83
2022-10-16T02:32:32.119Z,1.70
2022-10-16T02:35:01.090Z,1.50
2022-10-16T02:37:29.435Z,1.70
2022-10-16T02:39:58.081Z,1.60
2022-10-16T02:42:36.704Z,1.60
2022-10-16T02:45:04.570Z,1.93
2022-10-16T02:47:31.111Z,1.87
2022-10-16T02:49:57.923Z,1.70
2022-10-16T02:52:24.779Z,1.80
2022-10-16T02:54:52.480Z,1.90
2022-10-16T02:57:19.270Z,1.90
2022-10-16T02:59:46.674Z,2.10
2022-10-16T03:02:13.315Z,2.40
2022-10-16T03:04:40.431Z,2.30
2022-10-16T03:07:07.241Z,2.10
2022-10-16T03:09:34.092Z,2.57
2022-10-16T03:12:00.797Z,2.20
2022-10-16T03:16:55.153Z,2.57
2022-10-16T03:19:21.889Z,3.20
2022-10-16T03:21:48.435Z,2.67
2022-10-16T03:24:15.275Z,3.20
2022-10-16T03:26:42.104Z,3.03
2022-10-16T03:29:08.762Z,2.50
2022-10-16T03:31:35.322Z,3.10
2022-10-16T03:34:02.206Z,3.13
2022-10-16T03:36:28.754Z,3.00
2022-10-16T03:38:55.289Z,3.70
2022-10-16T03:41:22.033Z,4.13
2022-10-16T03:43:48.601Z,3.17
2022-10-16T03:46:15.140Z,3.73
2022-10-16T03:48:41.735Z,4.13
2022-10-16T03:51:08.334Z,3.47
2022-10-16T03:53:34.935Z,3.47
2022-10-16T03:56:01.503Z,4.93
2022-10-16T03:58:28.048Z,3.40
2022-10-16T04:00:54.678Z,3.90
2022-10-16T04:03:22.286Z,3.23
2022-10-16T04:05:49.503Z,3.53
2022-10-16T04:08:16.322Z,3.50
2022-10-16T04:10:46.577Z,3.90
2022-10-16T04:13:13.615Z,3.90
2022-10-16T04:15:40.324Z,4.23
2022-10-16T04:18:07.392Z,3.80
2022-10-16T04:20:34.567Z,3.90
2022-10-16T04:23:01.515Z,4.07
2022-10-16T04:25:28.278Z,5.00
2022-10-16T04:27:55.208Z,3.53
2022-10-16T04:30:22.662Z,4.30
2022-10-16T04:32:51.086Z,4.40
2022-10-16T04:35:19.223Z,5.70
2022-10-16T04:37:46.204Z,4.53
2022-10-16T04:40:13.697Z,4.67
2022-10-16T04:42:40.307Z,4.00
2022-10-16T04:45:10.934Z,4.70
2022-10-16T04:47:40.082Z,4.77
2022-10-16T04:50:07.167Z,3.90
2022-10-16T04:55:03.583Z,4.60
2022-10-16T04:57:30.851Z,4.27
2022-10-16T04:59:57.950Z,4.60
2022-10-16T05:02:24.538Z,4.10
2022-10-16T05:04:51.391Z,4.10
2022-10-16T05:07:18.339Z,4.90
2022-10-16T05:09:44.903Z,4.63
2022-10-16T05:12:11.555Z,4.20
2022-10-16T05:14:38.406Z,5.33
2022-10-16T05:17:05.211Z,5.13
2022-10-16T05:19:31.789Z,4.70
2022-10-16T05:21:58.372Z,4.33
2022-10-16T05:24:24.994Z,4.97
2022-10-16T05:26:52.405Z,4.70
2022-10-16T05:29:19.098Z,4.30
2022-10-16T05:31:46.182Z,4.67
2022-10-16T05:34:13.362Z,4.60
2022-10-16T05:36:39.899Z,6.10
2022-10-16T05:39:07.191Z,5.50
2022-10-16T05:41:34.276Z,4.90
2022-10-16T05:44:04.575Z,5.73
2022-10-16T05:46:31.098Z,4.60
2022-10-16T05:48:57.834Z,4.53
2022-10-16T05:51:24.656Z,4.50
2022-10-16T05:53:51.239Z,4.87
2022-10-16T05:56:17.810Z,4.90
2022-10-16T05:58:45.519Z,4.63
2022-10-16T06:01:17.969Z,4.43
2022-10-16T06:03:45.306Z,4.63
2022-10-16T06:06:14.498Z,4.63
2022-10-16T06:08:43.214Z,4.57
2022-10-16T06:11:12.160Z,4.93
2022-10-16T06:13:39.951Z,4.17
2022-10-16T06:16:07.114Z,4.47
2022-10-16T06:18:33.673Z,3.90
2022-10-16T06:21:00.677Z,3.53
2022-10-16T06:23:29.396Z,4.37
2022-10-16T06:26:06.005Z,4.70
2022-10-16T06:28:32.625Z,5.17
2022-10-16T06:31:07.281Z,5.50
2022-10-16T06:33:35.832Z,4.10
2022-10-16T06:36:11.650Z,4.63
2022-10-16T06:38:39.862Z,3.97
2022-10-16T06:41:08.027Z,3.47
2022-10-16T06:43:36.244Z,3.10
2022-10-16T06:46:05.618Z,2.23
2022-10-16T06:48:32.593Z,3.07
2022-10-16T06:51:12.482Z,3.37
2022-10-16T06:54:01.125Z,3.27
2022-10-16T06:56:30.981Z,3.40
2022-10-16T06:58:58.204Z,2.83
2022-10-16T07:01:27.039Z,3.10
2022-10-16T07:03:54.773Z,2.60
2022-10-16T07:06:23.469Z,3.27
2022-10-16T07:08:50.795Z,3.50
2022-10-16T07:11:20.250Z,2.80
2022-10-16T07:13:51.056Z,2.87
2022-10-16T07:16:24.191Z,3.77
2022-10-16T07:18:55.104Z,2.80
2022-10-16T07:21:23.528Z,2.70
2022-10-16T07:23:58.935Z,2.30
2022-10-16T07:26:26.750Z,2.17
2022-10-16T07:28:53.580Z,1.83
2022-10-16T07:31:22.069Z,2.90
2022-10-16T07:33:49.368Z,2.20
2022-10-16T07:36:18.755Z,2.10
2022-10-16T07:38:46.835Z,2.10
2022-10-16T07:41:16.203Z,2.10
2022-10-16T07:43:47.929Z,2.03
2022-10-16T07:46:15.458Z,1.73
2022-10-16T07:48:41.992Z,1.90
2022-10-16T07:51:08.647Z,1.67
2022-10-16T07:53:35.408Z,1.90
2022-10-16T07:56:06.693Z,1.77
2022-10-16T07:58:34.644Z,1.70
2022-10-16T08:01:06.216Z,1.60
2022-10-16T08:03:33.279Z,1.60
2022-10-16T08:06:00.887Z,1.30
2022-10-16T08:08:28.303Z,1.60
2022-10-16T08:10:55.374Z,1.73
2022-10-16T08:13:22.234Z,1.30
2022-10-16T08:15:48.926Z,1.30
2022-10-16T08:18:16.800Z,1.13
2022-10-16T08:20:44.949Z,1.10
2022-10-16T08:23:14.906Z,1.20
2022-10-16T08:25:42.702Z,1.13
2022-10-16T08:28:11.034Z,1.10
2022-10-16T08:30:38.436Z,1.10
2022-10-16T08:33:05.113Z,1.10
2022-10-16T08:35:31.717Z,1.40
2022-10-16T08:37:58.279Z,1.50
2022-10-16T08:40:36.777Z,1.10
2022-10-16T08:43:20.081Z,1.00
2022-10-16T08:46:08.626Z,1.47
2022-10-16T08:48:42.267Z,1.20
2022-10-16T08:51:11.897Z,1.20
2022-10-16T08:53:47.735Z,1.00
2022-10-16T08:56:14.283Z,1.33
2022-10-16T08:58:40.873Z,1.00
2022-10-16T09:01:15.048Z,1.33
2022-10-16T09:03:47.667Z,1.03
2022-10-16T09:06:30.756Z,1.30
2022-10-16T09:09:16.017Z,1.03
2022-10-16T09:12:01.085Z,0.90
2022-10-16T09:14:55.292Z,1.30
2022-10-16T09:17:37.184Z,1.10
2022-10-16T09:20:16.198Z,1.00
2022-10-16T09:22:42.757Z,0.83
2022-10-16T09:25:17.766Z,1.10
2022-10-16T09:27:48.828Z,1.17
2022-10-16T09:30:18.781Z,1.67
2022-10-16T09:32:49.225Z,1.13
2022-10-16T09:35:40.789Z,1.10
2022-10-16T09:38:08.129Z,1.20
2022-10-16T09:40:38.186Z,1.00
2022-10-16T09:43:21.230Z,1.17
2022-10-16T09:46:09.075Z,1.00
2022-10-16T09:48:40.100Z,1.37
2022-10-16T09:51:36.455Z,1.40
2022-10-16T09:54:15.223Z,1.10
2022-10-16T09:56:42.573Z,0.90
2022-10-16T09:59:14.572Z,1.20
2022-10-16T10:01:47.360Z,0.80
2022-10-16T10:04:14.350Z,1.10
2022-10-16T10:06:49.942Z,1.00
2022-10-16T10:09:20.532Z,0.90
2022-10-16T10:11:54.930Z,0.87
2022-10-16T10:14:29.813Z,1.00
2022-10-16T10:17:11.331Z,1.00
2022-10-16T10:19:42.437Z,1.20
2022-10-16T10:22:20.604Z,0.93
2022-10-16T10:25:13.294Z,1.40
2022-10-16T10:28:10.650Z,1.17
2022-10-16T10:31:12.718Z,1.03
2022-10-16T10:34:29.277Z,1.50
2022-10-16T10:37:07.270Z,1.10
2022-10-16T10:39:46.605Z,1.30
2022-10-16T10:42:31.209Z,1.03
2022-10-16T10:45:04.579Z,1.07
2022-10-16T10:48:03.010Z,0.90
2022-10-16T10:50:44.576Z,1.43
2022-10-16T10:53:46.362Z,1.20
2022-10-16T10:56:25.197Z,1.00
2022-10-16T10:58:59.525Z,1.23
2022-10-16T11:01:47.357Z,1.17
2022-10-16T11:04:43.343Z,1.40
2022-10-16T11:07:30.285Z,1.23
2022-10-16T11:10:10.164Z,1.23
2022-10-16T11:12:43.631Z,1.17
2022-10-16T11:15:26.690Z,1.27
2022-10-16T11:18:00.091Z,1.37
2022-10-16T11:20:38.565Z,1.30
2022-10-16T11:23:16.507Z,1.40
2022-10-16T11:25:44.701Z,1.23
2022-10-16T11:28:27.987Z,1.40
2022-10-16T11:31:09.360Z,1.33
2022-10-16T11:33:44.653Z,1.20
2022-10-16T11:36:23.947Z,1.50
2022-10-16T11:39:17.345Z,1.30
2022-10-16T11:41:50.492Z,1.03
2022-10-16T11:44:37.071Z,1.50
2022-10-16T11:47:46.396Z,1.30
2022-10-16T11:50:20.881Z,1.70
2022-10-16T11:53:14.276Z,1.53
2022-10-16T11:55:46.752Z,1.27
2022-10-16T11:58:23.884Z,1.30
2022-10-16T12:01:00.944Z,1.13
2022-10-16T12:03:38.090Z,1.50
2022-10-16T12:06:26.425Z,1.53
2022-10-16T12:08:55.013Z,1.00
2022-10-16T12:11:27.713Z,1.23
2022-10-16T12:14:17.281Z,1.63
2022-10-16T12:16:57.632Z,1.80
2022-10-16T12:19:26.370Z,1.93
2022-10-16T12:21:56.874Z,1.07
2022-10-16T12:24:37.640Z,1.20
2022-10-16T12:27:07.564Z,1.07
2022-10-16T12:29:38.370Z,1.00
2022-10-16T12:32:35.137Z,1.00
2022-10-16T12:35:18.636Z,1.10
2022-10-16T12:37:46.133Z,1.10
2022-10-16T12:40:28.079Z,1.00
2022-10-16T12:42:54.711Z,1.27
2022-10-16T12:45:34.883Z,1.10
2022-10-16T12:48:05.847Z,1.00
2022-10-16T12:50:38.888Z,1.40
2022-10-16T12:53:21.007Z,0.93
2022-10-16T12:56:04.369Z,0.97
2022-10-16T12:58:43.297Z,1.00
2022-10-16T13:01:34.661Z,0.87
2022-10-16T13:04:15.641Z,0.97
2022-10-16T13:06:51.599Z,1.20
2022-10-16T13:09:39.696Z,0.87
2022-10-16T13:12:16.772Z,0.80
2022-10-16T13:15:31.509Z,1.17
2022-10-16T13:18:17.038Z,1.10
2022-10-16T13:20:56.026Z,1.00
2022-10-16T13:23:32.084Z,0.90
2022-10-16T13:26:13.858Z,1.30
2022-10-16T13:28:40.739Z,1.00
2022-10-16T13:31:25.325Z,1.20
2022-10-16T13:33:59.734Z,0.87
2022-10-16T13:36:29.320Z,0.93
2022-10-16T13:39:07.422Z,1.93
2022-10-16T13:41:34.141Z,1.30
2022-10-16T13:44:00.713Z,1.13
2022-10-16T13:46:27.522Z,0.87
2022-10-16T13:49:05.958Z,1.50
2022-10-16T13:51:34.152Z,1.00
2022-10-16T13:54:00.801Z,1.00
2022-10-16T13:56:33.543Z,1.30
2022-10-16T13:59:06.444Z,1.00
2022-10-16T14:01:41.288Z,1.13
2022-10-16T14:04:11.965Z,1.03
2022-10-16T14:06:43.285Z,1.00
2022-10-16T14:09:21.941Z,0.90
2022-10-16T14:11:54.734Z,0.80
2022-10-16T14:14:21.567Z,0.87
2022-10-16T14:16:48.814Z,1.30
2022-10-16T14:19:27.975Z,0.90
2022-10-16T14:21:54.931Z,1.20
2022-10-16T14:24:34.375Z,1.23
2022-10-16T14:27:02.181Z,1.00
2022-10-16T14:29:32.434Z,1.10
2022-10-16T14:32:06.975Z,1.27
2022-10-16T14:34:41.430Z,1.17
2022-10-16T14:37:26.680Z,1.60
2022-10-16T14:39:55.830Z,1.13
2022-10-16T14:42:25.652Z,0.90
2022-10-16T14:44:55.453Z,1.10
2022-10-16T14:47:27.654Z,1.43
2022-10-16T14:49:56.829Z,1.10
2022-10-16T14:52:23.558Z,1.10
2022-10-16T14:54:50.933Z,0.87
2022-10-16T14:57:19.724Z,0.90
2022-10-16T14:59:48.057Z,0.90
2022-10-16T15:02:28.152Z,1.10
2022-10-16T15:04:54.821Z,1.17
2022-10-16T15:07:21.919Z,1.17
2022-10-16T15:09:49.503Z,1.00
2022-10-16T15:12:17.557Z,1.87
2022-10-16T15:14:44.655Z,1.10
2022-10-16T15:17:12.010Z,1.13
2022-10-16T15:19:38.984Z,1.13
2022-10-16T15:22:05.825Z,1.00
2022-10-16T15:24:32.317Z,0.90
2022-10-16T15:26:58.933Z,0.97
2022-10-16T15:29:25.545Z,1.20
2022-10-16T15:31:52.088Z,1.17
2022-10-16T15:34:20.400Z,1.50
2022-10-16T15:36:47.134Z,1.47
2022-10-16T15:39:17.511Z,1.53
2022-10-16T15:41:45.589Z,1.30
2022-10-16T15:44:12.265Z,1.20
2022-10-16T15:46:38.843Z,1.00
2022-10-16T15:49:05.527Z,1.27
2022-10-16T15:51:33.911Z,1.43
2022-10-16T15:54:02.607Z,1.10
2022-10-16T15:56:29.530Z,1.20
2022-10-16T15:58:56.232Z,1.27
2022-10-16T16:01:22.927Z,1.40
2022-10-16T16:03:56.144Z,1.20
2022-10-16T16:06:24.700Z,1.60
2022-10-16T16:08:52.468Z,1.63
2022-10-16T16:11:20.564Z,1.43
2022-10-16T16:13:47.198Z,2.40
2022-10-16T16:16:16.725Z,2.47
2022-10-16T16:18:44.287Z,2.13
2022-10-16T16:21:12.170Z,1.90
2022-10-16T16:23:38.885Z,1.57
2022-10-16T16:26:24.848Z,1.40
2022-10-16T16:28:51.496Z,1.70
2022-10-16T16:31:18.131Z,3.37
2022-10-16T16:33:44.689Z,3.10
2022-10-16T16:36:15.628Z,2.63
2022-10-16T16:38:42.841Z,2.50
2022-10-16T16:41:18.189Z,2.43
2022-10-16T16:43:45.647Z,2.03
2022-10-16T16:46:12.970Z,2.87
2022-10-16T16:48:40.098Z,2.20
2022-10-16T16:51:09.578Z,2.10
2022-10-16T16:53:36.979Z,3.57
2022-10-16T16:56:05.451Z,6.47
2022-10-16T16:58:33.636Z,9.17
2022-10-16T17:01:19.287Z,11.20
2022-10-16T17:03:46.624Z,10.40
2022-10-16T17:06:15.272Z,7.17
2022-10-16T17:08:43.425Z,9.10
2022-10-16T17:11:15.178Z,8.80
2022-10-16T17:13:42.282Z,5.10
2022-10-16T17:16:09.662Z,4.57
2022-10-16T17:18:36.828Z,3.57
2022-10-16T17:21:06.214Z,2.57
2022-10-16T17:23:33.712Z,1.50
2022-10-16T17:26:08.997Z,1.90
2022-10-16T17:28:35.644Z,1.70
2022-10-16T17:31:16.159Z,2.23
2022-10-16T17:33:44.190Z,2.33
2022-10-16T17:36:11.831Z,1.87
2022-10-16T17:38:38.412Z,1.53
2022-10-16T17:41:25.252Z,1.70
2022-10-16T17:43:52.769Z,1.37
2022-10-16T17:46:22.399Z,1.63
2022-10-16T17:48:52.176Z,2.00
2022-10-16T17:51:21.895Z,6.53
2022-10-16T17:53:49.879Z,8.73
2022-10-16T17:56:17.041Z,14.60
2022-10-16T17:58:46.502Z,12.57
2022-10-16T18:01:19.712Z,14.80
2022-10-16T18:03:54.585Z,21.80
2022-10-16T18:06:23.028Z,21.50
2022-10-16T18:08:51.281Z,20.50
2022-10-16T18:11:19.124Z,17.13
2022-10-16T18:13:45.995Z,17.50
2022-10-16T18:16:14.557Z,15.83
2022-10-16T18:18:44.941Z,13.07
2022-10-16T18:21:14.044Z,12.40
2022-10-16T18:23:41.839Z,12.90
2022-10-16T18:26:10.676Z,11.27
2022-10-16T18:28:38.254Z,7.60
2022-10-16T18:31:09.332Z,5.17
2022-10-16T18:33:36.122Z,4.33
2022-10-16T18:36:08.005Z,7.80
2022-10-16T18:38:35.745Z,8.43
2022-10-16T18:41:05.405Z,6.20
2022-10-16T18:43:32.915Z,8.40
2022-10-16T18:46:02.932Z,4.90
2022-10-16T18:48:30.560Z,5.03
2022-10-16T18:51:12.727Z,4.47
2022-10-16T18:53:42.001Z,4.57
2022-10-16T18:56:09.578Z,5.13
2022-10-16T18:58:36.646Z,7.73
2022-10-16T19:01:07.991Z,5.33
2022-10-16T19:03:36.235Z,4.83
2022-10-16T19:06:04.427Z,5.87
2022-10-16T19:08:33.568Z,5.30
2022-10-16T19:11:05.111Z,5.57
2022-10-16T19:13:32.067Z,4.60
2022-10-16T19:16:09.474Z,4.10
2022-10-16T19:18:46.226Z,3.40
2022-10-16T19:21:14.749Z,2.83
2022-10-16T19:23:42.323Z,2.73
2022-10-16T19:26:15.068Z,2.20
2022-10-16T19:28:43.092Z,2.03
2022-10-16T19:31:14.513Z,2.70
2022-10-16T19:33:41.646Z,2.50
2022-10-16T19:36:15.603Z,1.80
2022-10-16T19:38:42.805Z,1.97
2022-10-16T19:41:19.209Z,1.83
2022-10-16T19:43:47.069Z,2.10
2022-10-16T19:46:16.979Z,4.60
2022-10-16T19:48:44.651Z,2.20
2022-10-16T19:51:14.718Z,2.60
2022-10-16T19:53:41.337Z,2.43
2022-10-16T19:56:16.713Z,2.70
2022-10-16T19:58:44.696Z,3.30
2022-10-16T20:01:12.829Z,3.73
2022-10-16T20:03:40.516Z,3.73
2022-10-16T20:06:08.569Z,3.60
2022-10-16T20:08:37.302Z,3.73
2022-10-16T20:11:05.140Z,4.03
2022-10-16T20:13:32.595Z,3.83
2022-10-16T20:15:59.415Z,4.03
2022-10-16T20:18:26.101Z,4.00
2022-10-16T20:20:52.669Z,4.77
2022-10-16T20:23:19.801Z,3.60
2022-10-16T20:25:47.211Z,3.30
2022-10-16T20:28:18.230Z,3.53
2022-10-16T20:30:47.411Z,3.50
2022-10-16T20:33:15.247Z,3.10
2022-10-16T20:35:47.883Z,3.43
2022-10-16T20:38:15.950Z,3.47
2022-10-16T20:40:45.612Z,3.17
2022-10-16T20:43:17.636Z,4.27
2022-10-16T20:45:45.413Z,4.17
2022-10-16T20:48:13.713Z,4.23
2022-10-16T20:50:41.582Z,4.33
2022-10-16T20:53:08.469Z,4.50
2022-10-16T20:55:37.067Z,4.67
2022-10-16T20:58:04.885Z,4.90
2022-10-16T21:00:31.727Z,4.10
2022-10-16T21:02:58.362Z,4.77
2022-10-16T21:05:28.653Z,3.87
2022-10-16T21:07:55.630Z,4.00
2022-10-16T21:10:23.051Z,4.30
2022-10-16T21:12:55.548Z,3.53
2022-10-16T21:15:22.567Z,3.73
2022-10-16T21:17:49.500Z,3.80
2022-10-16T21:20:16.360Z,3.50
2022-10-16T21:22:42.971Z,4.10
2022-10-16T21:25:09.812Z,3.30
2022-10-16T21:27:38.283Z,3.93
2022-10-16T21:30:06.805Z,3.50
2022-10-16T21:32:35.826Z,3.47
2022-10-16T21:35:03.099Z,3.93
2022-10-16T21:37:29.657Z,3.30
2022-10-16T21:39:56.300Z,3.73
2022-10-16T21:42:23.011Z,3.63
2022-10-16T21:44:49.595Z,4.10
2022-10-16T21:47:17.135Z,3.97
2022-10-16T21:49:43.735Z,3.83
2022-10-16T21:52:10.253Z,3.97
2022-10-16T21:54:36.786Z,4.30
2022-10-16T21:59:30.892Z,3.60
2022-10-16T22:01:57.736Z,4.20
2022-10-16T22:04:24.290Z,3.77
2022-10-16T22:06:51.134Z,3.40
2022-10-16T22:09:17.938Z,3.47
2022-10-16T22:11:44.908Z,3.13
2022-10-16T22:14:16.083Z,3.17
2022-10-16T22:16:43.449Z,3.30
2022-10-16T22:19:12.166Z,3.43
2022-10-16T22:21:40.572Z,3.40
2022-10-16T22:24:08.159Z,2.93
2022-10-16T22:26:35.585Z,4.20
2022-10-16T22:29:02.293Z,4.10
2022-10-16T22:31:29.715Z,3.90
2022-10-16T22:34:01.807Z,3.50
2022-10-16T22:36:28.801Z,3.50
2022-10-16T22:38:55.568Z,3.50
2022-10-16T22:41:22.969Z,3.37
2022-10-16T22:43:50.154Z,3.93
2022-10-16T22:46:19.813Z,3.10
2022-10-16T22:48:46.585Z,3.63
2022-10-16T22:51:16.777Z,3.70
2022-10-16T22:53:46.575Z,3.10
2022-10-16T22:56:14.383Z,3.90
2022-10-16T22:58:41.462Z,3.23
2022-10-16T23:01:17.631Z,3.93
2022-10-16T23:03:44.413Z,5.43
2022-10-16T23:06:11.005Z,3.10
2022-10-16T23:08:37.569Z,3.40
2022-10-16T23:11:07.502Z,3.20
2022-10-16T23:13:38.584Z,2.67
2022-10-16T23:16:06.938Z,3.13
2022-10-16T23:18:36.824Z,3.37
2022-10-16T23:21:12.326Z,2.47
2022-10-16T23:23:39.937Z,2.63
2022-10-16T23:26:11.329Z,3.13
2022-10-16T23:28:38.482Z,2.80
2022-10-16T23:31:06.581Z,2.60
2022-10-16T23:33:34.606Z,3.10
2022-10-16T23:36:05.096Z,2.77
2022-10-16T23:38:31.742Z,2.60
2022-10-16T23:40:58.325Z,3.20
2022-10-16T23:43:24.841Z,2.90
2022-10-16T23:45:51.417Z,2.30
2022-10-16T23:48:17.946Z,2.30
2022-10-16T23:50:44.463Z,2.77
2022-10-16T23:53:10.977Z,2.00
2022-10-16T23:55:37.570Z,2.17
2022-10-16T23:58:04.086Z,3.03
